sensor_id;sensor_type;location;lat;lon;timestamp;P1;durP1;ratioP1;P2;durP2;ratioP2
769;SDS011;368;48.698;9.116;2023-11-21T00:01:02;5.13;;;3.00;;
769;SDS011;368;48.698;9.116;2023-11-21T00:03:31;4.40;;;2.23;;
769;SDS011;368;48.698;9.116;2023-11-21T00:05:57;4.47;;;2.40;;
769;SDS011;368;48.698;9.116;2023-11-21T00:08:25;3.00;;;1.90;;
769;SDS011;368;48.698;9.116;2023-11-21T00:10:53;3.83;;;2.30;;
769;SDS011;368;48.698;9.116;2023-11-21T00:13:20;5.30;;;2.23;;
769;SDS011;368;48.698;9.116;2023-11-21T00:15:46;4.33;;;2.90;;
769;SDS011;368;48.698;9.116;2023-11-21T00:18:14;5.50;;;2.23;;
769;SDS011;368;48.698;9.116;2023-11-21T00:20:43;3.60;;;2.27;;
769;SDS011;368;48.698;9.116;2023-11-21T00:23:10;8.03;;;2.17;;
769;SDS011;368;48.698;9.116;2023-11-21T00:25:36;3.27;;;2.17;;
769;SDS011;368;48.698;9.116;2023-11-21T00:28:03;3.40;;;2.57;;
769;SDS011;368;48.698;9.116;2023-11-21T00:30:30;6.20;;;2.53;;
769;SDS011;368;48.698;9.116;2023-11-21T00:32:58;6.37;;;2.30;;
769;SDS011;368;48.698;9.116;2023-11-21T00:35:25;3.37;;;3.07;;
769;SDS011;368;48.698;9.116;2023-11-21T00:37:53;3.43;;;1.87;;
769;SDS011;368;48.698;9.116;2023-11-21T00:40:20;6.10;;;2.67;;
769;SDS011;368;48.698;9.116;2023-11-21T00:42:47;4.70;;;2.13;;
769;SDS011;368;48.698;9.116;2023-11-21T00:45:14;2.40;;;1.80;;
769;SDS011;368;48.698;9.116;2023-11-21T00:47:41;6.93;;;2.87;;
769;SDS011;368;48.698;9.116;2023-11-21T00:50:08;3.50;;;1.77;;
769;SDS011;368;48.698;9.116;2023-11-21T00:52:35;3.67;;;2.03;;
769;SDS011;368;48.698;9.116;2023-11-21T00:55:04;5.13;;;2.03;;
769;SDS011;368;48.698;9.116;2023-11-21T00:57:32;1.67;;;1.40;;
769;SDS011;368;48.698;9.116;2023-11-21T00:59:59;6.43;;;2.17;;
769;SDS011;368;48.698;9.116;2023-11-21T01:02:26;6.10;;;2.17;;
769;SDS011;368;48.698;9.116;2023-11-21T01:04:54;11.23;;;3.30;;
769;SDS011;368;48.698;9.116;2023-11-21T01:07:20;9.60;;;2.00;;
769;SDS011;368;48.698;9.116;2023-11-21T01:09:47;2.13;;;1.73;;
769;SDS011;368;48.698;9.116;2023-11-21T01:12:16;4.20;;;2.40;;
769;SDS011;368;48.698;9.116;2023-11-21T01:14:44;2.90;;;2.00;;
769;SDS011;368;48.698;9.116;2023-11-21T01:17:11;3.63;;;2.00;;
769;SDS011;368;48.698;9.116;2023-11-21T01:19:38;4.30;;;2.07;;
769;SDS011;368;48.698;9.116;2023-11-21T01:22:04;6.00;;;2.20;;
769;SDS011;368;48.698;9.116;2023-11-21T01:24:31;6.97;;;2.30;;
769;SDS011;368;48.698;9.116;2023-11-21T01:26:58;4.17;;;2.10;;
769;SDS011;368;48.698;9.116;2023-11-21T01:29:26;2.50;;;1.93;;
769;SDS011;368;48.698;9.116;2023-11-21T01:31:53;4.93;;;2.20;;
769;SDS011;368;48.698;9.116;2023-11-21T01:34:23;2.57;;;2.03;;
769;SDS011;368;48.698;9.116;2023-11-21T01:36:50;3.00;;;1.87;;
769;SDS011;368;48.698;9.116;2023-11-21T01:39:17;5.80;;;2.53;;
769;SDS011;368;48.698;9.116;2023-11-21T01:41:48;4.67;;;2.00;;
769;SDS011;368;48.698;9.116;2023-11-21T01:44:15;5.73;;;2.30;;
769;SDS011;368;48.698;9.116;2023-11-21T01:46:44;4.50;;;2.10;;
769;SDS011;368;48.698;9.116;2023-11-21T01:49:11;2.73;;;1.50;;
769;SDS011;368;48.698;9.116;2023-11-21T01:54:07;3.90;;;1.80;;
769;SDS011;368;48.698;9.116;2023-11-21T01:56:34;2.33;;;1.67;;
769;SDS011;368;48.698;9.116;2023-11-21T01:59:01;3.50;;;1.50;;
769;SDS011;368;48.698;9.116;2023-11-21T02:01:29;2.30;;;1.27;;
769;SDS011;368;48.698;9.116;2023-11-21T02:03:57;2.10;;;1.70;;
769;SDS011;368;48.698;9.116;2023-11-21T02:06:24;2.90;;;1.73;;
769;SDS011;368;48.698;9.116;2023-11-21T02:08:51;4.60;;;1.50;;
769;SDS011;368;48.698;9.116;2023-11-21T02:11:18;2.97;;;1.73;;
769;SDS011;368;48.698;9.116;2023-11-21T02:13:45;3.80;;;1.20;;
769;SDS011;368;48.698;9.116;2023-11-21T02:16:12;2.73;;;1.60;;
769;SDS011;368;48.698;9.116;2023-11-21T02:18:39;2.70;;;1.43;;
769;SDS011;368;48.698;9.116;2023-11-21T02:21:08;3.97;;;1.30;;
769;SDS011;368;48.698;9.116;2023-11-21T02:23:36;3.17;;;1.33;;
769;SDS011;368;48.698;9.116;2023-11-21T02:26:07;3.70;;;1.50;;
769;SDS011;368;48.698;9.116;2023-11-21T02:28:34;1.70;;;1.20;;
769;SDS011;368;48.698;9.116;2023-11-21T02:31:01;3.23;;;1.60;;
769;SDS011;368;48.698;9.116;2023-11-21T02:33:29;1.30;;;1.03;;
769;SDS011;368;48.698;9.116;2023-11-21T02:35:59;2.43;;;1.20;;
769;SDS011;368;48.698;9.116;2023-11-21T02:38:26;1.40;;;1.30;;
769;SDS011;368;48.698;9.116;2023-11-21T02:40:55;1.93;;;1.43;;
769;SDS011;368;48.698;9.116;2023-11-21T02:43:23;1.93;;;1.30;;
769;SDS011;368;48.698;9.116;2023-11-21T02:45:50;2.30;;;1.30;;
769;SDS011;368;48.698;9.116;2023-11-21T02:48:17;3.37;;;1.43;;
769;SDS011;368;48.698;9.116;2023-11-21T02:50:43;1.10;;;1.00;;
769;SDS011;368;48.698;9.116;2023-11-21T02:53:10;3.60;;;1.70;;
769;SDS011;368;48.698;9.116;2023-11-21T02:55:37;1.40;;;0.97;;
769;SDS011;368;48.698;9.116;2023-11-21T02:58:05;2.23;;;1.37;;
769;SDS011;368;48.698;9.116;2023-11-21T03:00:32;2.37;;;1.20;;
769;SDS011;368;48.698;9.116;2023-11-21T03:02:59;1.40;;;0.93;;
769;SDS011;368;48.698;9.116;2023-11-21T03:05:26;2.60;;;1.90;;
769;SDS011;368;48.698;9.116;2023-11-21T03:07:54;3.70;;;1.80;;
769;SDS011;368;48.698;9.116;2023-11-21T03:10:20;3.20;;;1.23;;
769;SDS011;368;48.698;9.116;2023-11-21T03:12:48;1.97;;;1.10;;
769;SDS011;368;48.698;9.116;2023-11-21T03:15:16;2.10;;;0.80;;
769;SDS011;368;48.698;9.116;2023-11-21T03:17:43;1.67;;;1.00;;
769;SDS011;368;48.698;9.116;2023-11-21T03:20:10;1.97;;;1.00;;
769;SDS011;368;48.698;9.116;2023-11-21T03:22:38;1.93;;;0.90;;
769;SDS011;368;48.698;9.116;2023-11-21T03:25:06;5.80;;;0.90;;
769;SDS011;368;48.698;9.116;2023-11-21T03:27:35;1.27;;;0.80;;
769;SDS011;368;48.698;9.116;2023-11-21T03:30:04;0.80;;;0.80;;
769;SDS011;368;48.698;9.116;2023-11-21T03:32:34;2.50;;;1.43;;
769;SDS011;368;48.698;9.116;2023-11-21T03:35:01;1.27;;;1.00;;
769;SDS011;368;48.698;9.116;2023-11-21T03:37:28;1.70;;;0.70;;
769;SDS011;368;48.698;9.116;2023-11-21T03:39:55;1.33;;;0.80;;
769;SDS011;368;48.698;9.116;2023-11-21T03:42:22;6.50;;;3.90;;
769;SDS011;368;48.698;9.116;2023-11-21T03:44:50;3.90;;;2.93;;
769;SDS011;368;48.698;9.116;2023-11-21T03:47:17;1.07;;;0.90;;
769;SDS011;368;48.698;9.116;2023-11-21T03:49:45;0.77;;;0.77;;
769;SDS011;368;48.698;9.116;2023-11-21T03:52:12;1.10;;;1.00;;
769;SDS011;368;48.698;9.116;2023-11-21T03:54:39;1.33;;;0.70;;
769;SDS011;368;48.698;9.116;2023-11-21T03:57:06;2.60;;;1.03;;
769;SDS011;368;48.698;9.116;2023-11-21T03:59:34;2.53;;;0.60;;
769;SDS011;368;48.698;9.116;2023-11-21T04:02:01;2.03;;;0.93;;
769;SDS011;368;48.698;9.116;2023-11-21T04:04:28;3.50;;;2.20;;
769;SDS011;368;48.698;9.116;2023-11-21T04:06:56;2.10;;;1.03;;
769;SDS011;368;48.698;9.116;2023-11-21T04:09:23;2.60;;;2.40;;
769;SDS011;368;48.698;9.116;2023-11-21T04:11:50;3.83;;;1.17;;
769;SDS011;368;48.698;9.116;2023-11-21T04:14:17;2.13;;;1.23;;
769;SDS011;368;48.698;9.116;2023-11-21T04:16:44;2.47;;;0.97;;
769;SDS011;368;48.698;9.116;2023-11-21T04:19:11;2.23;;;0.90;;
769;SDS011;368;48.698;9.116;2023-11-21T04:21:39;0.73;;;0.70;;
769;SDS011;368;48.698;9.116;2023-11-21T04:24:08;1.50;;;1.20;;
769;SDS011;368;48.698;9.116;2023-11-21T04:26:35;2.50;;;0.87;;
769;SDS011;368;48.698;9.116;2023-11-21T04:29:02;1.63;;;1.53;;
769;SDS011;368;48.698;9.116;2023-11-21T04:31:29;1.40;;;1.30;;
769;SDS011;368;48.698;9.116;2023-11-21T04:33:56;1.67;;;1.57;;
769;SDS011;368;48.698;9.116;2023-11-21T04:36:23;3.90;;;3.60;;
769;SDS011;368;48.698;9.116;2023-11-21T04:38:50;0.80;;;0.70;;
769;SDS011;368;48.698;9.116;2023-11-21T04:41:18;1.37;;;1.00;;
769;SDS011;368;48.698;9.116;2023-11-21T04:43:45;0.83;;;0.80;;
769;SDS011;368;48.698;9.116;2023-11-21T04:46:12;5.90;;;0.90;;
769;SDS011;368;48.698;9.116;2023-11-21T04:48:39;1.87;;;1.00;;
769;SDS011;368;48.698;9.116;2023-11-21T04:51:06;1.50;;;0.80;;
769;SDS011;368;48.698;9.116;2023-11-21T04:53:32;0.83;;;0.60;;
769;SDS011;368;48.698;9.116;2023-11-21T04:56:00;0.70;;;0.70;;
769;SDS011;368;48.698;9.116;2023-11-21T04:58:28;1.50;;;0.70;;
769;SDS011;368;48.698;9.116;2023-11-21T05:00:55;1.70;;;0.67;;
769;SDS011;368;48.698;9.116;2023-11-21T05:03:22;3.90;;;0.70;;
769;SDS011;368;48.698;9.116;2023-11-21T05:05:49;0.70;;;0.57;;
769;SDS011;368;48.698;9.116;2023-11-21T05:08:15;0.83;;;0.60;;
769;SDS011;368;48.698;9.116;2023-11-21T05:10:44;1.70;;;0.90;;
769;SDS011;368;48.698;9.116;2023-11-21T05:13:10;1.30;;;0.70;;
769;SDS011;368;48.698;9.116;2023-11-21T05:15:39;1.50;;;1.10;;
769;SDS011;368;48.698;9.116;2023-11-21T05:18:06;1.00;;;0.87;;
769;SDS011;368;48.698;9.116;2023-11-21T05:20:33;0.80;;;0.80;;
769;SDS011;368;48.698;9.116;2023-11-21T05:22:59;1.00;;;0.90;;
769;SDS011;368;48.698;9.116;2023-11-21T05:25:26;3.80;;;2.60;;
769;SDS011;368;48.698;9.116;2023-11-21T05:27:53;3.13;;;2.73;;
769;SDS011;368;48.698;9.116;2023-11-21T05:30:20;3.23;;;2.50;;
769;SDS011;368;48.698;9.116;2023-11-21T05:32:49;6.80;;;4.87;;
769;SDS011;368;48.698;9.116;2023-11-21T05:35:16;2.63;;;1.23;;
769;SDS011;368;48.698;9.116;2023-11-21T05:37:43;1.17;;;1.00;;
769;SDS011;368;48.698;9.116;2023-11-21T05:40:10;2.93;;;2.73;;
769;SDS011;368;48.698;9.116;2023-11-21T05:42:38;1.90;;;1.67;;
769;SDS011;368;48.698;9.116;2023-11-21T05:45:06;1.40;;;1.20;;
769;SDS011;368;48.698;9.116;2023-11-21T05:47:36;1.97;;;1.87;;
769;SDS011;368;48.698;9.116;2023-11-21T05:50:06;2.00;;;1.90;;
769;SDS011;368;48.698;9.116;2023-11-21T05:52:37;1.37;;;1.27;;
769;SDS011;368;48.698;9.116;2023-11-21T05:55:04;2.30;;;2.20;;
769;SDS011;368;48.698;9.116;2023-11-21T05:57:32;2.20;;;1.80;;
769;SDS011;368;48.698;9.116;2023-11-21T06:00:01;1.90;;;1.80;;
769;SDS011;368;48.698;9.116;2023-11-21T06:02:36;1.50;;;1.23;;
769;SDS011;368;48.698;9.116;2023-11-21T06:05:03;1.40;;;1.30;;
769;SDS011;368;48.698;9.116;2023-11-21T06:07:32;1.60;;;1.50;;
769;SDS011;368;48.698;9.116;2023-11-21T06:10:00;1.97;;;1.47;;
769;SDS011;368;48.698;9.116;2023-11-21T06:12:28;1.60;;;1.13;;
769;SDS011;368;48.698;9.116;2023-11-21T06:14:55;2.00;;;1.57;;
769;SDS011;368;48.698;9.116;2023-11-21T06:17:22;1.87;;;1.73;;
769;SDS011;368;48.698;9.116;2023-11-21T06:19:50;2.43;;;1.87;;
769;SDS011;368;48.698;9.116;2023-11-21T06:22:19;3.30;;;3.00;;
769;SDS011;368;48.698;9.116;2023-11-21T06:24:46;2.47;;;2.27;;
769;SDS011;368;48.698;9.116;2023-11-21T06:27:13;2.77;;;2.57;;
769;SDS011;368;48.698;9.116;2023-11-21T06:29:41;3.00;;;2.30;;
769;SDS011;368;48.698;9.116;2023-11-21T06:32:08;1.90;;;1.80;;
769;SDS011;368;48.698;9.116;2023-11-21T06:34:35;2.33;;;1.70;;
769;SDS011;368;48.698;9.116;2023-11-21T06:37:02;2.30;;;1.50;;
769;SDS011;368;48.698;9.116;2023-11-21T06:39:30;2.70;;;2.03;;
769;SDS011;368;48.698;9.116;2023-11-21T06:41:57;1.90;;;1.80;;
769;SDS011;368;48.698;9.116;2023-11-21T06:44:25;1.90;;;1.43;;
769;SDS011;368;48.698;9.116;2023-11-21T06:46:52;1.57;;;1.47;;
769;SDS011;368;48.698;9.116;2023-11-21T06:49:19;1.70;;;1.60;;
769;SDS011;368;48.698;9.116;2023-11-21T06:51:45;1.63;;;1.33;;
769;SDS011;368;48.698;9.116;2023-11-21T06:54:12;1.40;;;1.30;;
769;SDS011;368;48.698;9.116;2023-11-21T06:56:41;1.97;;;1.87;;
769;SDS011;368;48.698;9.116;2023-11-21T06:59:07;2.47;;;2.27;;
769;SDS011;368;48.698;9.116;2023-11-21T07:01:35;2.13;;;1.97;;
769;SDS011;368;48.698;9.116;2023-11-21T07:04:04;2.23;;;2.00;;
769;SDS011;368;48.698;9.116;2023-11-21T07:06:32;3.33;;;1.90;;
769;SDS011;368;48.698;9.116;2023-11-21T07:08:59;2.83;;;2.63;;
769;SDS011;368;48.698;9.116;2023-11-21T07:11:26;2.40;;;1.90;;
769;SDS011;368;48.698;9.116;2023-11-21T07:13:54;2.23;;;1.90;;
769;SDS011;368;48.698;9.116;2023-11-21T07:16:21;2.57;;;1.40;;
769;SDS011;368;48.698;9.116;2023-11-21T07:18:48;3.33;;;1.47;;
769;SDS011;368;48.698;9.116;2023-11-21T07:21:15;1.50;;;1.40;;
769;SDS011;368;48.698;9.116;2023-11-21T07:23:42;2.30;;;1.20;;
769;SDS011;368;48.698;9.116;2023-11-21T07:26:09;2.00;;;1.67;;
769;SDS011;368;48.698;9.116;2023-11-21T07:28:36;4.47;;;2.60;;
769;SDS011;368;48.698;9.116;2023-11-21T07:31:04;5.60;;;2.40;;
769;SDS011;368;48.698;9.116;2023-11-21T07:33:31;5.33;;;3.43;;
769;SDS011;368;48.698;9.116;2023-11-21T07:35:58;3.30;;;3.00;;
769;SDS011;368;48.698;9.116;2023-11-21T07:38:25;2.57;;;2.37;;
769;SDS011;368;48.698;9.116;2023-11-21T07:40:53;3.90;;;2.20;;
769;SDS011;368;48.698;9.116;2023-11-21T07:43:20;2.13;;;1.80;;
769;SDS011;368;48.698;9.116;2023-11-21T07:45:47;3.30;;;2.17;;
769;SDS011;368;48.698;9.116;2023-11-21T07:48:15;1.90;;;1.70;;
769;SDS011;368;48.698;9.116;2023-11-21T07:50:42;1.60;;;1.50;;
769;SDS011;368;48.698;9.116;2023-11-21T07:53:09;2.80;;;1.47;;
769;SDS011;368;48.698;9.116;2023-11-21T07:55:36;1.97;;;1.77;;
769;SDS011;368;48.698;9.116;2023-11-21T07:58:03;2.23;;;1.80;;
769;SDS011;368;48.698;9.116;2023-11-21T08:00:29;3.70;;;2.20;;
769;SDS011;368;48.698;9.116;2023-11-21T08:02:56;2.30;;;2.20;;
769;SDS011;368;48.698;9.116;2023-11-21T08:05:24;3.10;;;1.70;;
769;SDS011;368;48.698;9.116;2023-11-21T08:07:51;2.40;;;1.63;;
769;SDS011;368;48.698;9.116;2023-11-21T08:10:18;1.90;;;1.67;;
769;SDS011;368;48.698;9.116;2023-11-21T08:12:46;1.50;;;1.40;;
769;SDS011;368;48.698;9.116;2023-11-21T08:15:13;2.13;;;1.93;;
769;SDS011;368;48.698;9.116;2023-11-21T08:17:40;1.60;;;1.50;;
769;SDS011;368;48.698;9.116;2023-11-21T08:20:07;2.57;;;2.30;;
769;SDS011;368;48.698;9.116;2023-11-21T08:22:37;2.00;;;1.90;;
769;SDS011;368;48.698;9.116;2023-11-21T08:25:06;3.90;;;2.67;;
769;SDS011;368;48.698;9.116;2023-11-21T08:27:33;7.90;;;7.10;;
769;SDS011;368;48.698;9.116;2023-11-21T08:30:09;8.10;;;7.33;;
769;SDS011;368;48.698;9.116;2023-11-21T08:32:37;3.00;;;2.80;;
769;SDS011;368;48.698;9.116;2023-11-21T08:35:04;3.90;;;2.20;;
769;SDS011;368;48.698;9.116;2023-11-21T08:37:31;1.70;;;1.37;;
769;SDS011;368;48.698;9.116;2023-11-21T08:40:04;3.00;;;1.70;;
769;SDS011;368;48.698;9.116;2023-11-21T08:42:34;2.30;;;1.40;;
769;SDS011;368;48.698;9.116;2023-11-21T08:45:01;3.37;;;1.33;;
769;SDS011;368;48.698;9.116;2023-11-21T08:47:28;2.43;;;1.60;;
769;SDS011;368;48.698;9.116;2023-11-21T08:49:55;1.70;;;1.30;;
769;SDS011;368;48.698;9.116;2023-11-21T08:52:23;1.40;;;1.30;;
769;SDS011;368;48.698;9.116;2023-11-21T08:54:50;2.23;;;1.67;;
769;SDS011;368;48.698;9.116;2023-11-21T08:57:22;2.17;;;1.57;;
769;SDS011;368;48.698;9.116;2023-11-21T08:59:49;4.67;;;3.90;;
769;SDS011;368;48.698;9.116;2023-11-21T09:02:20;3.10;;;2.30;;
769;SDS011;368;48.698;9.116;2023-11-21T09:04:48;4.97;;;2.70;;
769;SDS011;368;48.698;9.116;2023-11-21T09:07:15;2.53;;;1.90;;
769;SDS011;368;48.698;9.116;2023-11-21T09:09:44;1.60;;;1.20;;
769;SDS011;368;48.698;9.116;2023-11-21T09:12:10;2.50;;;1.20;;
769;SDS011;368;48.698;9.116;2023-11-21T09:14:38;1.60;;;1.00;;
769;SDS011;368;48.698;9.116;2023-11-21T09:17:05;1.87;;;1.13;;
769;SDS011;368;48.698;9.116;2023-11-21T09:19:35;3.87;;;1.27;;
769;SDS011;368;48.698;9.116;2023-11-21T09:22:02;1.33;;;1.23;;
769;SDS011;368;48.698;9.116;2023-11-21T09:24:30;1.73;;;1.47;;
769;SDS011;368;48.698;9.116;2023-11-21T09:26:57;1.50;;;1.20;;
769;SDS011;368;48.698;9.116;2023-11-21T09:29:25;1.77;;;1.40;;
769;SDS011;368;48.698;9.116;2023-11-21T09:31:53;2.37;;;1.40;;
769;SDS011;368;48.698;9.116;2023-11-21T09:34:24;3.37;;;1.80;;
769;SDS011;368;48.698;9.116;2023-11-21T09:36:51;4.57;;;1.53;;
769;SDS011;368;48.698;9.116;2023-11-21T09:39:18;1.10;;;0.83;;
769;SDS011;368;48.698;9.116;2023-11-21T09:41:46;1.37;;;1.00;;
769;SDS011;368;48.698;9.116;2023-11-21T09:44:17;2.30;;;1.73;;
769;SDS011;368;48.698;9.116;2023-11-21T09:46:48;1.47;;;0.93;;
769;SDS011;368;48.698;9.116;2023-11-21T09:49:21;2.90;;;1.70;;
769;SDS011;368;48.698;9.116;2023-11-21T09:51:51;0.90;;;0.47;;
769;SDS011;368;48.698;9.116;2023-11-21T09:54:22;2.40;;;1.43;;
769;SDS011;368;48.698;9.116;2023-11-21T09:56:49;1.80;;;1.57;;
769;SDS011;368;48.698;9.116;2023-11-21T09:59:16;4.13;;;1.70;;
769;SDS011;368;48.698;9.116;2023-11-21T10:01:46;4.00;;;2.10;;
769;SDS011;368;48.698;9.116;2023-11-21T10:04:17;3.63;;;2.50;;
769;SDS011;368;48.698;9.116;2023-11-21T10:06:46;2.10;;;0.83;;
769;SDS011;368;48.698;9.116;2023-11-21T10:09:14;1.80;;;0.60;;
769;SDS011;368;48.698;9.116;2023-11-21T10:11:45;3.40;;;1.97;;
769;SDS011;368;48.698;9.116;2023-11-21T10:14:13;2.20;;;1.10;;
769;SDS011;368;48.698;9.116;2023-11-21T10:16:43;5.00;;;2.73;;
769;SDS011;368;48.698;9.116;2023-11-21T10:19:12;3.30;;;2.13;;
769;SDS011;368;48.698;9.116;2023-11-21T10:21:41;6.10;;;4.50;;
769;SDS011;368;48.698;9.116;2023-11-21T10:24:09;2.20;;;1.80;;
769;SDS011;368;48.698;9.116;2023-11-21T10:26:37;1.40;;;1.13;;
769;SDS011;368;48.698;9.116;2023-11-21T10:29:05;1.43;;;1.00;;
769;SDS011;368;48.698;9.116;2023-11-21T10:31:31;1.13;;;0.97;;
769;SDS011;368;48.698;9.116;2023-11-21T10:34:12;1.80;;;0.83;;
769;SDS011;368;48.698;9.116;2023-11-21T10:36:39;1.30;;;1.20;;
769;SDS011;368;48.698;9.116;2023-11-21T10:39:06;1.87;;;1.07;;
769;SDS011;368;48.698;9.116;2023-11-21T10:41:34;3.43;;;2.20;;
769;SDS011;368;48.698;9.116;2023-11-21T10:44:01;3.63;;;2.93;;
769;SDS011;368;48.698;9.116;2023-11-21T10:46:29;1.10;;;1.00;;
769;SDS011;368;48.698;9.116;2023-11-21T10:48:56;1.47;;;1.13;;
769;SDS011;368;48.698;9.116;2023-11-21T10:51:23;1.07;;;0.90;;
769;SDS011;368;48.698;9.116;2023-11-21T10:53:51;0.97;;;0.97;;
769;SDS011;368;48.698;9.116;2023-11-21T10:56:19;2.67;;;1.07;;
769;SDS011;368;48.698;9.116;2023-11-21T10:58:50;1.27;;;1.17;;
769;SDS011;368;48.698;9.116;2023-11-21T11:01:19;1.10;;;1.00;;
769;SDS011;368;48.698;9.116;2023-11-21T11:03:47;1.40;;;1.30;;
769;SDS011;368;48.698;9.116;2023-11-21T11:06:14;1.30;;;1.13;;
769;SDS011;368;48.698;9.116;2023-11-21T11:08:42;2.33;;;1.00;;
769;SDS011;368;48.698;9.116;2023-11-21T11:11:10;3.57;;;1.30;;
769;SDS011;368;48.698;9.116;2023-11-21T11:13:38;1.03;;;0.90;;
769;SDS011;368;48.698;9.116;2023-11-21T11:16:12;1.37;;;0.90;;
769;SDS011;368;48.698;9.116;2023-11-21T11:18:42;0.90;;;0.90;;
769;SDS011;368;48.698;9.116;2023-11-21T11:21:14;2.23;;;2.03;;
769;SDS011;368;48.698;9.116;2023-11-21T11:23:53;1.93;;;1.83;;
769;SDS011;368;48.698;9.116;2023-11-21T11:26:43;1.10;;;1.00;;
769;SDS011;368;48.698;9.116;2023-11-21T11:29:18;2.87;;;2.00;;
769;SDS011;368;48.698;9.116;2023-11-21T11:31:58;2.03;;;1.10;;
769;SDS011;368;48.698;9.116;2023-11-21T11:34:35;1.80;;;1.70;;
769;SDS011;368;48.698;9.116;2023-11-21T11:37:06;1.60;;;1.50;;
769;SDS011;368;48.698;9.116;2023-11-21T11:39:35;1.80;;;0.87;;
769;SDS011;368;48.698;9.116;2023-11-21T11:42:03;1.50;;;1.40;;
769;SDS011;368;48.698;9.116;2023-11-21T11:44:51;2.83;;;1.40;;
769;SDS011;368;48.698;9.116;2023-11-21T11:47:21;1.67;;;1.50;;
769;SDS011;368;48.698;9.116;2023-11-21T11:50:00;2.00;;;1.10;;
769;SDS011;368;48.698;9.116;2023-11-21T11:52:32;1.93;;;1.20;;
769;SDS011;368;48.698;9.116;2023-11-21T11:55:00;2.00;;;1.53;;
769;SDS011;368;48.698;9.116;2023-11-21T11:57:29;1.30;;;0.83;;
769;SDS011;368;48.698;9.116;2023-11-21T12:00:07;3.20;;;1.60;;
769;SDS011;368;48.698;9.116;2023-11-21T12:02:37;1.77;;;1.67;;
769;SDS011;368;48.698;9.116;2023-11-21T12:05:08;2.73;;;1.90;;
769;SDS011;368;48.698;9.116;2023-11-21T12:07:45;5.60;;;5.10;;
769;SDS011;368;48.698;9.116;2023-11-21T12:10:16;1.97;;;1.87;;
769;SDS011;368;48.698;9.116;2023-11-21T12:12:47;1.73;;;1.63;;
769;SDS011;368;48.698;9.116;2023-11-21T12:15:15;2.33;;;1.90;;
769;SDS011;368;48.698;9.116;2023-11-21T12:17:45;1.73;;;1.20;;
769;SDS011;368;48.698;9.116;2023-11-21T12:20:12;2.07;;;1.30;;
769;SDS011;368;48.698;9.116;2023-11-21T12:22:43;2.10;;;1.10;;
769;SDS011;368;48.698;9.116;2023-11-21T12:25:13;1.57;;;1.47;;
769;SDS011;368;48.698;9.116;2023-11-21T12:27:44;1.60;;;1.50;;
769;SDS011;368;48.698;9.116;2023-11-21T12:30:12;2.03;;;1.83;;
769;SDS011;368;48.698;9.116;2023-11-21T12:32:40;1.63;;;1.53;;
769;SDS011;368;48.698;9.116;2023-11-21T12:35:10;1.77;;;1.67;;
769;SDS011;368;48.698;9.116;2023-11-21T12:37:37;1.00;;;0.90;;
769;SDS011;368;48.698;9.116;2023-11-21T12:40:05;1.20;;;1.10;;
769;SDS011;368;48.698;9.116;2023-11-21T12:42:33;1.57;;;1.37;;
769;SDS011;368;48.698;9.116;2023-11-21T12:45:07;1.10;;;1.07;;
769;SDS011;368;48.698;9.116;2023-11-21T12:47:39;1.60;;;1.50;;
769;SDS011;368;48.698;9.116;2023-11-21T12:50:07;1.10;;;1.03;;
769;SDS011;368;48.698;9.116;2023-11-21T12:52:40;1.27;;;1.07;;
769;SDS011;368;48.698;9.116;2023-11-21T12:55:09;1.17;;;1.07;;
769;SDS011;368;48.698;9.116;2023-11-21T12:57:40;1.10;;;1.03;;
769;SDS011;368;48.698;9.116;2023-11-21T13:00:09;0.97;;;0.90;;
769;SDS011;368;48.698;9.116;2023-11-21T13:02:49;0.70;;;0.70;;
769;SDS011;368;48.698;9.116;2023-11-21T13:05:24;0.60;;;0.60;;
769;SDS011;368;48.698;9.116;2023-11-21T13:07:53;0.77;;;0.57;;
769;SDS011;368;48.698;9.116;2023-11-21T13:10:22;0.73;;;0.70;;
769;SDS011;368;48.698;9.116;2023-11-21T13:12:51;0.70;;;0.70;;
769;SDS011;368;48.698;9.116;2023-11-21T13:15:20;1.00;;;0.90;;
769;SDS011;368;48.698;9.116;2023-11-21T13:17:46;1.80;;;1.53;;
769;SDS011;368;48.698;9.116;2023-11-21T13:20:15;1.67;;;1.30;;
769;SDS011;368;48.698;9.116;2023-11-21T13:22:47;1.50;;;1.40;;
769;SDS011;368;48.698;9.116;2023-11-21T13:25:15;2.00;;;1.70;;
769;SDS011;368;48.698;9.116;2023-11-21T13:27:43;1.73;;;1.53;;
769;SDS011;368;48.698;9.116;2023-11-21T13:30:11;2.23;;;1.40;;
769;SDS011;368;48.698;9.116;2023-11-21T13:32:41;1.70;;;1.60;;
769;SDS011;368;48.698;9.116;2023-11-21T13:35:09;1.87;;;1.77;;
769;SDS011;368;48.698;9.116;2023-11-21T13:37:47;1.73;;;1.63;;
769;SDS011;368;48.698;9.116;2023-11-21T13:40:19;1.80;;;1.70;;
769;SDS011;368;48.698;9.116;2023-11-21T13:42:50;1.40;;;1.00;;
769;SDS011;368;48.698;9.116;2023-11-21T13:45:19;1.07;;;0.60;;
769;SDS011;368;48.698;9.116;2023-11-21T13:47:48;1.30;;;1.00;;
769;SDS011;368;48.698;9.116;2023-11-21T13:50:17;1.10;;;0.60;;
769;SDS011;368;48.698;9.116;2023-11-21T13:52:49;0.60;;;0.60;;
769;SDS011;368;48.698;9.116;2023-11-21T13:55:18;1.60;;;0.50;;
769;SDS011;368;48.698;9.116;2023-11-21T13:57:45;1.43;;;0.70;;
769;SDS011;368;48.698;9.116;2023-11-21T14:00:15;0.40;;;0.37;;
769;SDS011;368;48.698;9.116;2023-11-21T14:02:56;0.97;;;0.93;;
769;SDS011;368;48.698;9.116;2023-11-21T14:05:25;2.53;;;0.53;;
769;SDS011;368;48.698;9.116;2023-11-21T14:07:55;0.70;;;0.70;;
769;SDS011;368;48.698;9.116;2023-11-21T14:10:28;0.70;;;0.57;;
769;SDS011;368;48.698;9.116;2023-11-21T14:13:02;1.03;;;0.93;;
769;SDS011;368;48.698;9.116;2023-11-21T14:15:30;1.20;;;0.60;;
769;SDS011;368;48.698;9.116;2023-11-21T14:17:58;0.80;;;0.80;;
769;SDS011;368;48.698;9.116;2023-11-21T14:20:27;1.50;;;1.20;;
769;SDS011;368;48.698;9.116;2023-11-21T14:22:56;1.47;;;1.37;;
769;SDS011;368;48.698;9.116;2023-11-21T14:25:23;1.40;;;1.30;;
769;SDS011;368;48.698;9.116;2023-11-21T14:27:52;1.80;;;1.20;;
769;SDS011;368;48.698;9.116;2023-11-21T14:30:18;1.70;;;1.60;;
769;SDS011;368;48.698;9.116;2023-11-21T14:32:47;1.70;;;1.60;;
769;SDS011;368;48.698;9.116;2023-11-21T14:35:14;2.60;;;2.40;;
769;SDS011;368;48.698;9.116;2023-11-21T14:37:41;2.73;;;2.43;;
769;SDS011;368;48.698;9.116;2023-11-21T14:40:11;2.70;;;2.07;;
769;SDS011;368;48.698;9.116;2023-11-21T14:42:41;2.97;;;2.30;;
769;SDS011;368;48.698;9.116;2023-11-21T14:45:08;3.33;;;2.40;;
769;SDS011;368;48.698;9.116;2023-11-21T14:47:38;2.67;;;2.47;;
769;SDS011;368;48.698;9.116;2023-11-21T14:50:09;2.13;;;1.97;;
769;SDS011;368;48.698;9.116;2023-11-21T14:53:04;2.87;;;2.67;;
769;SDS011;368;48.698;9.116;2023-11-21T14:55:32;3.97;;;2.13;;
769;SDS011;368;48.698;9.116;2023-11-21T14:58:13;2.73;;;2.53;;
769;SDS011;368;48.698;9.116;2023-11-21T15:00:43;8.93;;;2.90;;
769;SDS011;368;48.698;9.116;2023-11-21T15:03:11;3.03;;;2.83;;
769;SDS011;368;48.698;9.116;2023-11-21T15:05:56;3.80;;;2.90;;
769;SDS011;368;48.698;9.116;2023-11-21T15:08:23;3.10;;;2.80;;
769;SDS011;368;48.698;9.116;2023-11-21T15:10:56;3.37;;;2.97;;
769;SDS011;368;48.698;9.116;2023-11-21T15:13:23;4.90;;;3.33;;
769;SDS011;368;48.698;9.116;2023-11-21T15:15:52;4.10;;;2.73;;
769;SDS011;368;48.698;9.116;2023-11-21T15:18:19;3.17;;;2.87;;
769;SDS011;368;48.698;9.116;2023-11-21T15:20:47;3.73;;;2.90;;
769;SDS011;368;48.698;9.116;2023-11-21T15:23:13;3.10;;;2.80;;
769;SDS011;368;48.698;9.116;2023-11-21T15:25:42;4.07;;;2.83;;
769;SDS011;368;48.698;9.116;2023-11-21T15:28:11;3.00;;;2.70;;
769;SDS011;368;48.698;9.116;2023-11-21T15:30:37;4.00;;;3.00;;
769;SDS011;368;48.698;9.116;2023-11-21T15:33:04;3.73;;;2.73;;
769;SDS011;368;48.698;9.116;2023-11-21T15:35:32;3.37;;;2.97;;
769;SDS011;368;48.698;9.116;2023-11-21T15:38:02;3.13;;;2.83;;
769;SDS011;368;48.698;9.116;2023-11-21T15:40:29;3.33;;;3.03;;
769;SDS011;368;48.698;9.116;2023-11-21T15:42:56;3.83;;;3.53;;
769;SDS011;368;48.698;9.116;2023-11-21T15:45:25;4.30;;;3.67;;
769;SDS011;368;48.698;9.116;2023-11-21T15:47:52;4.13;;;3.80;;
769;SDS011;368;48.698;9.116;2023-11-21T15:50:18;4.77;;;4.27;;
769;SDS011;368;48.698;9.116;2023-11-21T15:52:45;4.60;;;3.83;;
769;SDS011;368;48.698;9.116;2023-11-21T15:55:12;4.70;;;4.30;;